createdAt,value
2022-11-29T00:00:55.445Z,47.65
2022-11-29T00:03:58.882Z,41.10
2022-11-29T00:19:55.168Z,33.35
2022-11-29T00:22:58.453Z,30.77
2022-11-29T00:26:06.648Z,44.20
2022-11-29T00:29:12.379Z,39.53
2022-11-29T00:32:15.696Z,33.10
2022-11-29T00:35:19.006Z,46.83
2022-11-29T00:38:21.509Z,33.37
2022-11-29T00:41:25.216Z,38.88
2022-11-29T00:44:28.200Z,39.53
2022-11-29T00:47:31.189Z,51.30
2022-11-29T00:50:33.855Z,51.22
2022-11-29T00:53:38.033Z,48.33
2022-11-29T00:56:40.453Z,40.35
2022-11-29T00:59:44.554Z,52.60
2022-11-29T01:02:48.687Z,39.38
2022-11-29T01:05:53.434Z,57.47
2022-11-29T01:08:56.057Z,44.13
2022-11-29T01:11:58.739Z,43.55
2022-11-29T01:15:01.186Z,37.20
2022-11-29T01:18:05.089Z,42.40
2022-11-29T01:21:17.389Z,50.53
2022-11-29T01:24:22.188Z,37.88
2022-11-29T01:27:25.023Z,45.03
2022-11-29T01:30:28.146Z,36.08
2022-11-29T01:33:30.830Z,42.77
2022-11-29T01:36:34.561Z,37.47
2022-11-29T01:39:37.859Z,33.40
2022-11-29T01:42:40.582Z,31.23
2022-11-29T01:45:45.570Z,32.03
2022-11-29T01:48:51.324Z,30.73
2022-11-29T01:52:00.032Z,31.15
2022-11-29T01:55:07.750Z,36.08
2022-11-29T01:58:10.954Z,35.72
2022-11-29T02:01:15.129Z,28.87
2022-11-29T02:04:19.319Z,33.35
2022-11-29T02:07:22.333Z,31.30
2022-11-29T02:10:49.157Z,34.85
2022-11-29T02:14:37.588Z,31.60
2022-11-29T02:18:27.210Z,29.73
2022-11-29T02:21:42.238Z,28.42
2022-11-29T02:25:08.077Z,32.55
2022-11-29T02:28:42.103Z,30.75
2022-11-29T02:32:36.708Z,29.20
2022-11-29T02:36:23.724Z,34.13
2022-11-29T02:39:35.086Z,32.08
2022-11-29T02:43:07.262Z,33.55
2022-11-29T02:46:39.603Z,35.08
2022-11-29T02:49:58.594Z,26.37
2022-11-29T02:53:23.682Z,29.50
2022-11-29T02:56:34.639Z,26.08
2022-11-29T03:00:03.402Z,27.08
2022-11-29T03:03:17.899Z,31.15
2022-11-29T03:06:44.210Z,28.73
2022-11-29T03:10:04.969Z,26.17
2022-11-29T03:13:22.526Z,26.73
2022-11-29T03:16:51.039Z,32.25
2022-11-29T03:20:20.565Z,31.80
2022-11-29T03:23:28.920Z,27.93
2022-11-29T03:26:43.336Z,28.17
2022-11-29T03:29:57.853Z,35.95
2022-11-29T03:33:16.945Z,30.05
2022-11-29T03:36:44.943Z,25.98
2022-11-29T03:39:59.780Z,33.60
2022-11-29T03:43:10.962Z,27.50
2022-11-29T03:46:35.390Z,29.23
2022-11-29T03:49:54.676Z,27.83
2022-11-29T03:53:13.154Z,33.15
2022-11-29T03:56:23.092Z,35.23
2022-11-29T03:59:50.637Z,23.45
2022-11-29T04:03:18.449Z,31.83
2022-11-29T04:07:00.932Z,33.67
2022-11-29T04:10:23.192Z,14.80
2022-11-29T04:13:49.295Z,29.98
2022-11-29T04:17:24.321Z,30.52
2022-11-29T04:20:39.080Z,30.73
2022-11-29T04:24:13.893Z,28.93
2022-11-29T04:27:31.038Z,24.65
2022-11-29T04:31:01.697Z,21.62
2022-11-29T04:34:38.675Z,21.30
2022-11-29T04:37:47.139Z,21.17
2022-11-29T04:41:04.834Z,21.08
2022-11-29T04:44:16.698Z,20.75
2022-11-29T04:47:57.475Z,20.92
2022-11-29T04:51:15.617Z,21.83
2022-11-29T04:55:00.726Z,24.98
2022-11-29T04:58:19.274Z,22.85
2022-11-29T05:01:56.524Z,25.70
2022-11-29T05:05:29.447Z,16.17
2022-11-29T05:08:39.715Z,27.17
2022-11-29T05:11:58.840Z,31.42
2022-11-29T05:15:29.453Z,26.58
2022-11-29T05:19:12.179Z,27.55
2022-11-29T05:22:39.325Z,18.52
2022-11-29T05:26:07.840Z,23.08
2022-11-29T05:29:29.840Z,19.90
2022-11-29T05:32:56.045Z,21.05
2022-11-29T05:36:14.015Z,24.57
2022-11-29T05:39:35.080Z,25.70
2022-11-29T05:42:56.747Z,20.10
2022-11-29T05:46:12.855Z,22.70
2022-11-29T05:49:35.263Z,18.45
2022-11-29T05:53:23.458Z,19.83
2022-11-29T05:56:34.682Z,20.35
2022-11-29T05:59:39.025Z,23.95
2022-11-29T06:02:54.408Z,24.35
2022-11-29T06:06:07.640Z,21.60
2022-11-29T06:09:29.359Z,21.42
2022-11-29T06:12:37.866Z,29.77
2022-11-29T06:16:16.584Z,27.60
2022-11-29T06:19:58.215Z,25.37
2022-11-29T06:23:29.367Z,27.27
2022-11-29T06:26:46.758Z,23.25
2022-11-29T06:30:13.564Z,37.13
2022-11-29T06:33:36.606Z,24.48
2022-11-29T06:36:48.930Z,23.63
2022-11-29T06:39:52.212Z,22.30
2022-11-29T06:42:55.868Z,29.27
2022-11-29T06:46:02.713Z,30.25
2022-11-29T06:49:30.690Z,31.48
2022-11-29T06:53:00.645Z,24.27
2022-11-29T06:56:25.429Z,35.15
2022-11-29T06:59:49.023Z,28.60
2022-11-29T07:03:24.682Z,28.50
2022-11-29T07:06:29.777Z,25.77
2022-11-29T07:09:35.636Z,29.00
2022-11-29T07:12:40.625Z,33.28
2022-11-29T07:16:04.711Z,29.05
2022-11-29T07:19:34.723Z,22.05
2022-11-29T07:23:08.853Z,26.27
2022-11-29T07:26:22.705Z,34.72
2022-11-29T07:29:47.865Z,30.08
2022-11-29T07:33:09.354Z,29.75
2022-11-29T07:36:50.123Z,31.10
2022-11-29T07:39:57.629Z,39.10
2022-11-29T07:43:38.868Z,28.23
2022-11-29T07:46:44.074Z,33.25
2022-11-29T07:49:48.079Z,26.45
2022-11-29T07:52:54.078Z,32.60
2022-11-29T07:55:58.648Z,29.35
2022-11-29T07:59:03.006Z,27.80
2022-11-29T08:02:11.647Z,29.23
2022-11-29T08:05:17.956Z,26.77
2022-11-29T08:08:20.943Z,34.47
2022-11-29T08:11:27.589Z,30.75
2022-11-29T08:14:34.038Z,27.15
2022-11-29T08:17:39.354Z,32.78
2022-11-29T08:20:43.765Z,27.57
2022-11-29T08:23:56.902Z,31.77
2022-11-29T08:27:01.058Z,29.58
2022-11-29T08:30:06.585Z,32.05
2022-11-29T08:33:10.749Z,27.17
2022-11-29T08:36:17.628Z,27.75
2022-11-29T08:39:28.155Z,26.23
2022-11-29T08:42:32.048Z,33.10
2022-11-29T08:45:34.884Z,27.52
2022-11-29T08:48:39.045Z,26.47
2022-11-29T08:51:42.747Z,28.98
2022-11-29T08:54:46.807Z,29.60
2022-11-29T08:57:51.330Z,33.53
2022-11-29T09:00:54.469Z,39.28
2022-11-29T09:04:00.599Z,37.70
2022-11-29T09:07:03.745Z,41.67
2022-11-29T09:10:09.129Z,42.35
2022-11-29T09:13:13.360Z,35.45
2022-11-29T09:16:26.631Z,36.97
2022-11-29T09:19:34.396Z,36.30
2022-11-29T09:22:39.303Z,43.95
2022-11-29T09:25:48.815Z,34.42
2022-11-29T09:28:52.638Z,37.72
2022-11-29T09:31:58.217Z,39.83
2022-11-29T09:35:01.864Z,35.95
2022-11-29T09:38:12.619Z,30.48
2022-11-29T09:41:32.350Z,37.70
2022-11-29T09:45:02.794Z,35.90
2022-11-29T09:48:47.284Z,37.77
2022-11-29T09:51:54.752Z,37.17
2022-11-29T09:55:25.752Z,37.58
2022-11-29T09:58:43.909Z,37.95
2022-11-29T10:01:51.514Z,42.42
2022-11-29T10:05:10.519Z,35.27
2022-11-29T10:08:25.861Z,40.05
2022-11-29T10:11:41.707Z,33.15
2022-11-29T10:14:59.543Z,32.50
2022-11-29T10:18:28.910Z,29.27
2022-11-29T10:21:38.412Z,33.10
2022-11-29T10:24:44.878Z,32.60
2022-11-29T10:27:48.912Z,34.17
2022-11-29T10:31:01.998Z,37.70
2022-11-29T10:34:15.276Z,30.77
2022-11-29T10:37:21.645Z,36.70
2022-11-29T10:40:35.281Z,39.55
2022-11-29T10:43:45.639Z,35.47
2022-11-29T10:46:51.032Z,35.72
2022-11-29T10:49:54.558Z,35.20
2022-11-29T10:53:13.853Z,34.70
2022-11-29T10:56:29.708Z,41.37
2022-11-29T10:59:36.885Z,41.90
2022-11-29T11:02:41.663Z,39.72
2022-11-29T11:05:57.882Z,36.85
2022-11-29T11:09:35.636Z,33.50
2022-11-29T11:12:39.597Z,34.22
2022-11-29T11:15:43.746Z,39.45
2022-11-29T11:18:48.184Z,43.78
2022-11-29T11:21:52.654Z,44.78
2022-11-29T11:25:04.476Z,40.50
2022-11-29T11:28:30.502Z,48.38
2022-11-29T11:31:38.724Z,34.17
2022-11-29T11:34:52.234Z,38.40
2022-11-29T11:37:58.796Z,32.50
2022-11-29T11:41:48.774Z,38.87
2022-11-29T11:44:53.730Z,31.75
2022-11-29T11:47:59.937Z,48.63
2022-11-29T11:51:06.592Z,32.22
2022-11-29T11:54:15.441Z,39.40
2022-11-29T11:57:21.522Z,38.47
2022-11-29T12:01:03.025Z,43.33
2022-11-29T12:04:38.004Z,34.65
2022-11-29T12:08:16.596Z,40.50
2022-11-29T12:11:20.795Z,37.38
2022-11-29T12:14:34.389Z,45.13
2022-11-29T12:17:49.822Z,44.57
2022-11-29T12:21:38.769Z,29.30
2022-11-29T12:24:55.489Z,44.08
2022-11-29T12:27:58.534Z,44.05
2022-11-29T12:31:55.538Z,40.17
2022-11-29T12:35:13.617Z,52.22
2022-11-29T12:38:26.533Z,43.53
2022-11-29T12:42:07.020Z,45.53
2022-11-29T12:45:37.184Z,51.97
2022-11-29T12:48:42.107Z,44.03
2022-11-29T12:52:05.922Z,45.95
2022-11-29T12:55:30.188Z,48.95
2022-11-29T12:59:14.166Z,50.55
2022-11-29T13:02:49.075Z,51.65
2022-11-29T13:06:17.374Z,49.40
2022-11-29T13:10:03.858Z,50.72
2022-11-29T13:13:38.980Z,53.00
2022-11-29T13:17:05.151Z,44.97
2022-11-29T13:20:28.993Z,46.63
2022-11-29T13:23:45.880Z,43.43
2022-11-29T13:27:07.256Z,46.83
2022-11-29T13:30:18.544Z,46.47
2022-11-29T13:33:41.847Z,43.58
2022-11-29T13:37:15.086Z,44.05
2022-11-29T13:40:32.650Z,44.73
2022-11-29T13:43:46.142Z,41.53
2022-11-29T13:46:52.727Z,47.78
2022-11-29T13:50:05.517Z,36.28
2022-11-29T13:53:21.985Z,43.10
2022-11-29T13:56:48.924Z,41.00
2022-11-29T13:59:55.691Z,50.30
2022-11-29T14:03:21.810Z,43.75
2022-11-29T14:06:37.439Z,46.20
2022-11-29T14:09:59.364Z,46.25
2022-11-29T14:13:07.986Z,42.37
2022-11-29T14:16:26.749Z,48.90
2022-11-29T14:19:38.555Z,53.65
2022-11-29T14:23:12.665Z,52.28
2022-11-29T14:26:29.160Z,53.30
2022-11-29T14:29:50.486Z,54.73
2022-11-29T14:33:36.082Z,45.07
2022-11-29T14:37:10.531Z,43.95
2022-11-29T14:40:40.034Z,46.33
2022-11-29T14:43:44.497Z,44.75
2022-11-29T14:46:51.552Z,45.17
2022-11-29T14:50:08.503Z,42.42
2022-11-29T14:53:36.498Z,43.55
2022-11-29T14:56:48.569Z,44.58
2022-11-29T15:00:08.546Z,45.85
2022-11-29T15:03:55.484Z,45.10
2022-11-29T16:05:41.463Z,36.30
2022-11-29T16:08:53.693Z,43.38
2022-11-29T16:12:02.484Z,40.63
2022-11-29T16:15:31.523Z,38.45
2022-11-29T16:18:47.494Z,44.47
2022-11-29T16:22:12.009Z,51.17
2022-11-29T16:25:27.196Z,196.85
2022-11-29T16:28:41.580Z,75.68
2022-11-29T16:31:51.006Z,44.90
2022-11-29T16:34:57.553Z,46.03
2022-11-29T16:38:10.624Z,47.27
2022-11-29T16:41:34.823Z,41.53
2022-11-29T16:44:49.483Z,57.80
2022-11-29T16:48:00.561Z,52.92
2022-11-29T16:51:21.574Z,52.25
2022-11-29T16:54:33.703Z,47.80
2022-11-29T16:57:48.518Z,44.35
2022-11-29T17:01:01.591Z,45.47
2022-11-29T17:04:23.525Z,44.80
2022-11-29T17:07:43.510Z,52.72
2022-11-29T17:10:52.713Z,54.97
2022-11-29T17:14:03.482Z,44.67
2022-11-29T17:17:21.455Z,50.33
2022-11-29T17:20:28.881Z,46.20
2022-11-29T17:23:45.437Z,56.83
2022-11-29T17:27:04.527Z,49.57
2022-11-29T17:30:12.413Z,47.47
2022-11-29T17:33:21.691Z,48.45
2022-11-29T17:36:32.416Z,56.13
2022-11-29T17:39:39.541Z,45.55
2022-11-29T17:42:51.555Z,60.03
2022-11-29T17:45:55.771Z,53.42
2022-11-29T17:49:01.323Z,52.60
2022-11-29T17:52:06.105Z,50.55
2022-11-29T17:55:20.480Z,49.80
2022-11-29T17:58:24.423Z,54.13
2022-11-29T18:01:38.754Z,49.38
2022-11-29T18:04:47.478Z,54.95
2022-11-29T18:08:07.605Z,58.67
2022-11-29T18:11:22.620Z,52.53
2022-11-29T18:14:36.521Z,57.83
2022-11-29T18:17:40.608Z,53.67
2022-11-29T18:20:50.469Z,56.08
2022-11-29T18:23:55.759Z,59.25
2022-11-29T18:27:00.881Z,57.83
2022-11-29T18:30:14.975Z,60.83
2022-11-29T18:33:23.472Z,65.03
2022-11-29T18:36:37.889Z,55.80
2022-11-29T18:39:53.798Z,62.60
2022-11-29T18:42:58.670Z,58.80
2022-11-29T18:46:24.121Z,63.07
2022-11-29T18:49:35.755Z,73.37
2022-11-29T18:52:58.385Z,62.78
2022-11-29T18:56:17.567Z,63.33
2022-11-29T18:59:29.442Z,71.28
2022-11-29T19:02:40.820Z,79.90
2022-11-29T19:06:00.477Z,68.45
2022-11-29T19:09:16.517Z,70.47
2022-11-29T19:12:22.588Z,70.72
2022-11-29T19:15:46.442Z,66.32
2022-11-29T19:18:54.554Z,76.40
2022-11-29T19:22:07.405Z,71.68
2022-11-29T19:25:17.577Z,74.97
2022-11-29T19:28:44.438Z,70.72
2022-11-29T19:31:53.618Z,67.30
2022-11-29T19:35:07.061Z,67.63
2022-11-29T19:38:16.797Z,69.32
2022-11-29T19:41:29.920Z,73.22
2022-11-29T19:45:14.905Z,65.00
2022-11-29T19:48:13.481Z,68.10
2022-11-29T19:51:18.086Z,63.17
2022-11-29T19:54:33.908Z,66.50
2022-11-29T19:58:02.770Z,62.40
2022-11-29T20:01:40.755Z,63.03
2022-11-29T20:05:00.716Z,71.80
2022-11-29T20:08:18.365Z,92.17
2022-11-29T20:11:33.599Z,68.77
2022-11-29T20:14:40.509Z,69.10
2022-11-29T20:17:53.401Z,63.47
2022-11-29T20:21:06.783Z,61.35
2022-11-29T20:24:19.746Z,60.93
2022-11-29T20:27:37.345Z,59.47
2022-11-29T20:30:48.295Z,61.90
2022-11-29T20:33:59.634Z,85.75
2022-11-29T20:37:36.504Z,78.50
2022-11-29T20:41:02.313Z,78.47
2022-11-29T20:44:17.617Z,77.07
2022-11-29T20:47:25.473Z,62.28
2022-11-29T20:50:39.551Z,57.22
2022-11-29T20:53:48.846Z,53.83
2022-11-29T20:56:59.700Z,56.33
2022-11-29T21:00:08.615Z,53.95
2022-11-29T21:03:17.135Z,54.80
2022-11-29T21:06:27.182Z,59.00
2022-11-29T21:09:33.418Z,54.88
2022-11-29T21:12:40.463Z,53.87
2022-11-29T21:15:45.741Z,59.17
2022-11-29T21:18:54.969Z,59.65
2022-11-29T21:22:48.988Z,63.08
2022-11-29T21:26:23.461Z,58.65
2022-11-29T21:29:43.354Z,63.40
2022-11-29T21:32:46.893Z,56.70
2022-11-29T21:35:58.210Z,55.95
2022-11-29T21:39:09.658Z,58.95
2022-11-29T21:42:13.817Z,75.30
2022-11-29T21:45:20.602Z,55.07
2022-11-29T21:48:36.280Z,50.60
2022-11-29T21:51:40.754Z,50.00
2022-11-29T21:54:46.594Z,50.03
2022-11-29T21:57:51.110Z,50.05
2022-11-29T22:00:54.477Z,50.23
2022-11-29T22:03:57.842Z,47.30
2022-11-29T22:07:03.456Z,46.15
2022-11-29T22:10:13.346Z,51.03
2022-11-29T22:13:16.261Z,45.70
2022-11-29T22:16:20.492Z,48.70
2022-11-29T22:19:30.337Z,43.73
2022-11-29T22:22:33.551Z,45.28
2022-11-29T22:25:36.873Z,43.97
2022-11-29T22:28:39.988Z,45.83
2022-11-29T22:31:45.221Z,40.47
2022-11-29T22:34:48.377Z,45.67
2022-11-29T22:37:51.733Z,44.00
2022-11-29T22:40:59.180Z,49.78
2022-11-29T22:44:05.502Z,47.45
2022-11-29T22:47:13.852Z,46.10
2022-11-29T22:50:24.761Z,39.60
2022-11-29T22:53:28.794Z,39.83
2022-11-29T22:56:33.708Z,42.03
2022-11-29T22:59:38.857Z,42.40
2022-11-29T23:02:48.004Z,43.83
2022-11-29T23:05:51.931Z,38.78
2022-11-29T23:08:58.840Z,42.03
2022-11-29T23:12:02.284Z,44.47
2022-11-29T23:15:05.363Z,41.90
2022-11-29T23:18:08.383Z,39.10
2022-11-29T23:21:15.635Z,40.77
2022-11-29T23:24:18.886Z,41.05
2022-11-29T23:27:22.599Z,37.80
2022-11-29T23:30:25.672Z,40.53
2022-11-29T23:33:29.070Z,41.37
2022-11-29T23:36:32.198Z,38.78
2022-11-29T23:39:35.074Z,42.03
2022-11-29T23:42:43.598Z,44.75
2022-11-29T23:45:49.816Z,37.70
2022-11-29T23:48:53.057Z,44.73
2022-11-29T23:51:55.891Z,39.83
2022-11-29T23:54:59.918Z,38.72
2022-11-29T23:58:03.423Z,38.00
